Latest Weather Observations for Fitzroy Crossing

IDW60801

Issued at 10:03 am WST Tuesday 26 July 2016 (issued every 30 minutes, with the page automatically refreshed every 10 minutes)

About weather observations | Map of weather stations | Latest weather observations for WA | Other Formats
Station Details ID: 003093 Name: FITZROY CROSSING AERO Lat: -18.18 Lon: 125.56 Height: 114.5 m
Data from the previous 72 hours. | See also: Recent months at Fitzroy Crossing
Date/Time
WST
Temp
°C
App
Temp
°C
Dew
Point
°C
Rel
Hum
%
Delta-T
°C
Wind Press
QNH
hPa
Press
MSL
hPa
Rain since
9am
mm
Dir  Spd
km/h
Gust
km/h
Spd
kts
Gust
kts
26/10:00am 28.4 25.5 6.5 25 11.6 SSE 11 17 6 9 1015.8 1015.4 0.0
26/09:30am 26.9 23.6 6.3 27 10.8 SSE 13 19 7 10 1016.2 1015.8 0.0
26/09:00am 25.4 21.9 7.1 31 9.6 SSE 15 19 8 10 1016.3 1015.9 0.0
26/08:30am 24.0 20.8 6.7 33 9.0 SSE 13 17 7 9 1016.3 1015.9 0.0
26/08:00am 22.7 19.6 7.3 37 8.0 SSE 13 19 7 10 1016.2 1015.8 0.0
26/07:30am 20.6 17.5 7.2 42 6.9 S 13 17 7 9 1015.9 1015.5 0.0
26/07:00am 18.1 14.5 6.9 48 5.6 S 15 20 8 11 1015.7 1015.3 0.0
26/06:30am 14.7 13.1 6.5 58 4.0 NW 4 6 2 3 1015.1 1014.7 0.0
26/06:00am 14.7 12.5 6.3 57 4.1 N 7 9 4 5 1014.8 1014.4 0.0
26/05:30am 15.2 14.0 6.5 56 4.2 N 2 9 1 5 1014.3 1013.9 0.0
26/05:00am 16.8 15.7 6.9 52 4.9 SE 2 7 1 4 1014.0 1013.6 0.0
26/04:30am 17.3 14.4 6.5 49 5.4 S 11 15 6 8 1014.2 1013.8 0.0
26/04:00am 17.6 15.5 6.5 48 5.5 SSE 7 9 4 5 1014.1 1013.7 0.0
26/03:30am 18.0 15.1 6.5 47 5.7 S 11 13 6 7 1014.2 1013.8 0.0
26/03:00am 18.0 14.7 6.2 46 5.8 SSW 13 15 7 8 1014.1 1013.7 0.0
26/02:30am 16.5 15.7 6.3 51 5.0 CALM 0 0 0 0 1014.0 1013.6 0.0
26/02:00am 17.1 15.9 6.3 49 5.3 SSW 2 6 1 3 1014.3 1013.9 0.0
26/01:30am 17.9 15.9 6.4 47 5.7 SSW 6 9 3 5 1014.5 1014.1 0.0
26/01:00am 19.9 17.6 5.5 39 7.1 S 7 9 4 5 1014.8 1014.4 0.0
26/12:30am 19.7 17.0 5.7 40 6.9 S 9 11 5 6 1015.0 1014.6 0.0
26/12:00am 20.9 18.1 5.3 36 7.7 SSE 9 11 5 6 1015.0 1014.6 0.0
 
Date/Time
WST
Temp
°C
App
Temp
°C
Dew
Point
°C
Rel
Hum
%
Delta-T
°C
Wind Press
QNH
hPa
Press
MSL
hPa
Rain since
9am
mm
Dir  Spd
km/h
Gust
km/h
Spd
kts
Gust
kts
25/11:30pm 21.8 18.3 5.3 34 8.2 SSE 13 15 7 8 1015.0 1014.6 0.0
25/11:00pm 22.1 18.9 5.1 33 8.5 S 11 15 6 8 1015.0 1014.6 0.0
25/10:30pm 23.3 19.4 5.2 31 9.1 S 15 19 8 10 1014.9 1014.5 0.0
25/10:00pm 24.1 19.3 5.5 30 9.5 S 20 26 11 14 1014.9 1014.5 0.0
25/09:30pm 22.9 19.4 7.1 36 8.2 S 15 19 8 10 1014.9 1014.5 0.0
25/09:00pm 23.6 20.4 6.8 34 8.7 SSW 13 13 7 7 1014.6 1014.2 0.0
25/08:30pm 24.7 21.8 6.4 31 9.5 S 11 13 6 7 1014.5 1014.1 0.0
25/08:00pm 25.4 22.5 6.6 30 9.8 S 11 13 6 7 1014.5 1014.1 0.0
25/07:30pm 26.2 23.3 6.3 28 10.4 SSW 11 13 6 7 1014.2 1013.8 0.0
25/07:00pm 27.3 24.7 6.1 26 11.1 SSW 9 11 5 6 1013.7 1013.4 0.0
25/06:30pm 27.6 24.7 6.4 26 11.2 S 11 13 6 7 1013.3 1012.9 0.0
25/06:00pm 27.9 25.3 6.1 25 11.5 S 9 11 5 6 1013.0 1012.6 0.0
25/05:30pm 29.5 27.2 4.9 21 12.8 S 6 7 3 4 1012.6 1012.2 0.0
25/05:00pm 31.5 29.1 5.1 19 13.9 S 7 9 4 5 1012.3 1011.9 0.0
25/04:30pm 32.9 29.5 3.8 16 15.2 SSE 11 15 6 8 1012.0 1011.6 0.0
25/04:00pm 33.6 31.2 4.3 16 15.5 E 6 13 3 7 1011.6 1011.2 0.0
25/03:30pm 34.0 31.7 4.6 16 15.6 SE 6 15 3 8 1011.6 1011.2 0.0
25/03:00pm 33.9 31.0 4.6 16 15.6 E 9 17 5 9 1011.6 1011.2 0.0
25/02:30pm 34.8 32.2 4.4 15 16.2 N 7 13 4 7 1011.8 1011.4 0.0
25/02:00pm 33.7 31.0 3.5 15 15.7 ESE 7 17 4 9 1012.1 1011.7 0.0
25/01:30pm 34.2 31.9 4.8 16 15.7 SE 6 13 3 7 1012.4 1012.0 0.0
25/01:00pm 34.3 32.2 5.8 17 15.5 ENE 6 11 3 6 1012.9 1012.5 0.0
25/12:30pm 33.8 30.8 6.2 18 15.0 ENE 11 28 6 15 1013.6 1013.3 0.0
25/12:00pm 32.8 29.6 6.9 20 14.2 E 13 22 7 12 1014.3 1013.9 0.0
25/11:30am 31.5 29.3 7.9 23 13.0 ESE 9 15 5 8 1014.9 1014.5 0.0
25/11:00am 30.1 27.6 6.7 23 12.6 ESE 9 17 5 9 1015.5 1015.1 0.0
25/10:30am 29.8 26.7 7.1 24 12.3 ENE 13 24 7 13 1015.9 1015.5 0.0
25/10:00am 28.1 24.9 6.8 26 11.3 ESE 13 17 7 9 1016.4 1016.0 0.0
25/09:30am 25.9 23.4 6.5 29 10.2 SE 9 15 5 8 1016.9 1016.5 0.0
25/09:00am 24.5 21.2 6.3 31 9.4 SE 13 17 7 9 1017.1 1016.7 0.0
25/08:30am 23.3 20.7 6.1 33 8.8 SE 9 13 5 7 1017.1 1016.7 0.0
25/08:00am 21.2 17.8 5.9 37 7.7 SSE 13 19 7 10 1017.0 1016.6 0.0
25/07:30am 19.3 15.5 5.7 41 6.7 S 15 20 8 11 1017.0 1016.6 0.0
25/07:00am 17.9 14.5 6.1 46 5.8 S 13 17 7 9 1016.6 1016.2 0.0
25/06:30am 15.7 13.3 7.0 56 4.3 SSE 9 11 5 6 1016.2 1015.8 0.0
25/06:00am 14.6 12.1 6.4 58 4.0 SSW 9 15 5 8 1016.1 1015.7 0.0
25/05:30am 14.3 12.1 6.4 59 3.8 SSW 7 9 4 5 1015.8 1015.4 0.0
25/05:00am 14.0 13.2 6.4 60 3.7 CALM 0 0 0 0 1015.4 1015.0 0.0
25/04:30am 14.6 13.7 6.2 57 4.1 CALM 0 0 0 0 1015.2 1014.8 0.0
25/04:00am 16.9 13.9 5.8 48 5.4 S 11 13 6 7 1015.0 1014.6 0.0
25/03:30am 16.5 13.9 6.1 50 5.1 S 9 11 5 6 1014.8 1014.4 0.0
25/03:00am 16.9 13.9 5.8 48 5.4 SSW 11 15 6 8 1014.9 1014.5 0.0
25/02:30am 17.4 15.1 5.7 46 5.7 S 7 9 4 5 1014.8 1014.4 0.0
25/02:00am 17.9 14.4 5.5 44 6.0 S 13 15 7 8 1015.0 1014.6 0.0
25/01:30am 18.1 15.0 5.7 44 6.1 SSW 11 13 6 7 1015.2 1014.8 0.0
25/01:00am 18.7 15.2 5.5 42 6.5 S 13 13 7 7 1015.2 1014.8 0.0
25/12:30am 19.6 16.1 5.3 39 7.0 S 13 15 7 8 1015.4 1015.0 0.0
25/12:00am 19.5 15.7 5.9 41 6.8 SSW 15 19 8 10 1015.6 1015.2 0.0
 
Date/Time
WST
Temp
°C
App
Temp
°C
Dew
Point
°C
Rel
Hum
%
Delta-T
°C
Wind Press
QNH
hPa
Press
MSL
hPa
Rain since
9am
mm
Dir  Spd
km/h
Gust
km/h
Spd
kts
Gust
kts
24/11:30pm 19.0 18.1 6.2 43 6.4 CALM 0 0 0 0 1015.3 1014.9 0.0
24/11:00pm 19.4 18.5 6.2 42 6.6 CALM 0 0 0 0 1015.3 1014.9 0.0
24/10:30pm 21.2 18.9 5.6 36 7.8 SSE 7 9 4 5 1015.4 1015.0 0.0
24/10:00pm 23.0 20.3 5.4 32 8.9 SSE 9 13 5 7 1015.3 1014.9 0.0
24/09:30pm 24.4 20.5 5.2 29 9.7 SE 15 20 8 11 1015.3 1014.9 0.0
24/09:00pm 25.3 21.1 5.5 28 10.1 SSE 17 24 9 13 1015.2 1014.8 0.0
24/08:30pm 25.8 21.5 5.4 27 10.5 SSE 17 24 9 13 1015.1 1014.7 0.0
24/08:00pm 26.5 21.7 5.5 26 10.8 SSE 20 26 11 14 1014.9 1014.5 0.0
24/07:30pm 26.4 22.2 5.9 27 10.7 SSE 17 24 9 13 1014.7 1014.3 0.0
24/07:00pm 26.2 22.4 5.7 27 10.6 SSE 15 20 8 11 1014.4 1014.0 0.0
24/06:30pm 26.3 23.0 6.4 28 10.4 SSE 13 17 7 9 1014.0 1013.6 0.0
24/06:00pm 26.7 23.7 6.2 27 10.7 SSE 11 15 6 8 1013.5 1013.2 0.0
24/05:30pm 27.8 24.8 6.0 25 11.4 SSE 11 13 6 7 1013.1 1012.7 0.0
24/05:00pm 30.3 27.6 5.6 21 13.1 SE 9 15 5 8 1012.7 1012.3 0.0
24/04:30pm 32.2 28.6 4.9 18 14.4 SSE 13 19 7 10 1012.5 1012.1 0.0
24/04:00pm 33.0 29.7 4.7 17 15.0 SE 11 19 6 10 1012.3 1011.9 0.0
24/03:30pm 33.3 29.3 5.0 17 15.1 ESE 15 24 8 13 1012.0 1011.6 0.0
24/03:00pm 33.4 29.0 5.0 17 15.1 SSE 17 22 9 12 1012.0 1011.6 0.0
24/02:30pm 33.1 28.7 4.8 17 15.0 ESE 17 28 9 15 1012.2 1011.8 0.0
24/02:00pm 33.2 29.0 5.7 18 14.8 ESE 17 24 9 13 1012.6 1012.2 0.0
24/01:30pm 33.4 29.8 6.6 19 14.7 SE 15 26 8 14 1012.9 1012.5 0.0
24/01:00pm 32.7 28.2 6.1 19 14.4 SE 19 28 10 15 1013.4 1013.0 0.0
24/12:30pm 31.8 27.1 6.1 20 13.8 SE 20 28 11 15 1014.0 1013.6 0.0
24/12:00pm 31.9 27.4 6.9 21 13.6 SE 20 26 11 14 1014.6 1014.2 0.0
24/11:30am 30.9 26.4 6.0 21 13.3 SE 19 32 10 17 1015.3 1014.9 0.0
24/11:00am 30.4 25.8 6.3 22 12.9 SE 20 28 11 15 1015.9 1015.5 0.0
24/10:30am 29.9 26.0 7.2 24 12.3 ESE 17 28 9 15 1016.4 1016.0 0.0
24/10:00am 28.3 23.2 5.8 24 11.8 SE 22 30 12 16 1016.8 1016.4 0.0
24/09:30am 27.5 23.4 6.3 26 11.2 ESE 17 24 9 13 1017.1 1016.7 0.0
24/09:00am 25.4 21.8 6.6 30 9.8 SSE 15 22 8 12 1017.3 1016.9 0.0
24/08:30am 24.0 20.8 6.7 33 9.0 SSE 13 19 7 10 1017.2 1016.8 0.0
24/08:00am 22.3 19.9 6.9 37 7.9 SSE 9 15 5 8 1016.9 1016.5 0.0
24/07:30am 20.4 17.2 6.7 41 7.0 S 13 17 7 9 1016.8 1016.4 0.0
24/07:00am 18.7 16.3 7.2 47 5.8 S 9 11 5 6 1016.5 1016.1 0.0
24/06:30am 16.1 12.9 6.8 54 4.6 SSW 13 15 7 8 1016.4 1016.0 0.0
24/06:00am 15.1 12.4 7.2 59 3.9 SSW 11 17 6 9 1016.1 1015.7 0.0
24/05:30am 14.0 13.5 7.8 66 3.1 CALM 0 0 0 0 1015.6 1015.2 0.0
24/05:00am 14.5 13.8 7.1 61 3.6 CALM 0 0 0 0 1015.1 1014.7 0.0
24/04:30am 16.5 14.0 6.6 52 4.9 S 9 9 5 5 1014.5 1014.1 0.0
24/04:00am 16.6 14.6 7.0 53 4.8 SSW 7 9 4 5 1014.3 1013.9 0.0
24/03:30am 18.0 15.4 6.2 46 5.8 SSE 9 11 5 6 1013.9 1013.5 0.0
24/03:00am 18.6 15.3 6.4 45 6.1 SSE 13 15 7 8 1013.5 1013.2 0.0
24/02:30am 18.4 15.5 6.6 46 5.9 S 11 15 6 8 1013.5 1013.2 0.0
24/02:00am 18.7 16.3 6.9 46 6.0 SSE 9 11 5 6 1013.6 1013.3 0.0
24/01:30am 18.6 15.7 6.4 45 6.1 S 11 11 6 6 1013.5 1013.2 0.0
24/01:00am 19.6 16.7 6.4 42 6.6 SSE 11 13 6 7 1013.7 1013.4 0.0
24/12:30am 20.0 17.8 6.0 40 7.0 SE 7 11 4 6 1013.7 1013.4 0.0
24/12:00am 20.9 17.5 6.1 38 7.5 S 13 15 7 8 1013.5 1013.2 0.0
 
Date/Time
WST
Temp
°C
App
Temp
°C
Dew
Point
°C
Rel
Hum
%
Delta-T
°C
Wind Press
QNH
hPa
Press
MSL
hPa
Rain since
9am
mm
Dir  Spd
km/h
Gust
km/h
Spd
kts
Gust
kts
23/11:30pm 21.1 17.8 6.2 38 7.5 S 13 15 7 8 1013.5 1013.2 0.0
23/11:00pm 21.2 18.3 6.3 38 7.6 S 11 13 6 7 1013.5 1013.2 0.0
23/10:30pm 21.2 17.7 5.6 36 7.8 SSW 13 19 7 10 1013.7 1013.4 0.0
23/10:00pm 25.3 21.5 6.0 29 10.0 SSE 15 17 8 9 1013.6 1013.3 0.0
23/09:30pm 24.7 20.9 6.0 30 9.6 SSE 15 19 8 10 1013.7 1013.4 0.0
23/09:00pm 23.8 20.2 5.2 30 9.4 S 13 17 7 9 1013.6 1013.3 0.0
23/08:30pm 24.0 20.5 5.4 30 9.4 S 13 15 7 8 1013.4 1013.0 0.0
23/08:00pm 22.8 19.5 6.6 35 8.3 SSW 13 15 7 8 1013.2 1012.8 0.0
23/07:30pm 22.1 21.0 6.7 37 7.9 E 2 6 1 3 1012.9 1012.5 0.0
23/07:00pm 24.4 21.7 5.7 30 9.6 E 9 11 5 6 1012.6 1012.2 0.0
23/06:30pm 25.5 22.8 5.7 28 10.2 ESE 9 9 5 5 1012.1 1011.7 0.0
23/06:00pm 26.3 24.0 7.4 30 10.1 ESE 9 9 5 5 1011.8 1011.4 0.0
23/05:30pm 28.6 26.4 6.1 24 11.9 SE 7 7 4 4 1011.6 1011.2 0.0
23/05:00pm 30.7 28.4 5.9 21 13.2 SE 7 9 4 5 1011.5 1011.1 0.0
23/04:30pm 33.0 30.5 4.7 17 15.0 ESE 7 13 4 7 1011.3 1010.9 0.0
23/04:00pm 33.6 30.6 4.3 16 15.5 E 9 19 5 10 1011.3 1010.9 0.0
23/03:30pm 34.0 31.5 4.6 16 15.6 SSE 7 15 4 8 1011.4 1011.0 0.0
23/03:00pm 34.0 31.3 3.7 15 15.9 E 7 17 4 9 1011.5 1011.1 0.0
23/02:30pm 34.3 31.1 4.9 16 15.7 ESE 11 19 6 10 1011.7 1011.3 0.0
23/02:00pm 33.9 30.2 4.6 16 15.6 SSE 13 24 7 13 1011.9 1011.5 0.0
23/01:30pm 33.8 30.3 5.4 17 15.3 SSE 13 17 7 9 1012.4 1012.0 0.0
23/01:00pm 33.5 30.9 5.9 18 14.9 S 9 17 5 9 1012.8 1012.4 0.0
23/12:30pm 33.4 30.5 6.6 19 14.7 ESE 11 19 6 10 1013.1 1012.7 0.0
23/12:00pm 33.6 30.4 6.8 19 14.7 ENE 13 19 7 10 1013.6 1013.3 0.0
23/11:30am 33.2 29.8 5.7 18 14.8 ENE 13 24 7 13 1014.3 1013.9 0.0
23/11:00am 31.7 28.6 7.4 22 13.3 ESE 13 20 7 11 1014.7 1014.3 0.0
23/10:30am 30.5 28.9 8.8 26 12.1 ENE 7 11 4 6 1015.1 1014.7 0.0

Other Formats:

Comma delimited format used in spreadsheet applications
http://www.bom.gov.au/fwo/IDW60801/IDW60801.94206.axf

JavaScript Object Notation format (JSON) in row-major order
http://www.bom.gov.au/fwo/IDW60801/IDW60801.94206.json